sensor_id;sensor_type;location;lat;lon;timestamp;temperature;humidity
14735;DHT22;7458;49.002;8.472;2023-09-07T00:00:14;19.50;99.90
14735;DHT22;7458;49.002;8.472;2023-09-07T00:05:07;19.50;99.30
14735;DHT22;7458;49.002;8.472;2023-09-07T00:12:27;19.40;99.30
14735;DHT22;7458;49.002;8.472;2023-09-07T00:14:57;19.50;99.90
14735;DHT22;7458;49.002;8.472;2023-09-07T00:32:04;18.90;99.90
14735;DHT22;7458;49.002;8.472;2023-09-07T00:56:33;18.80;99.90
14735;DHT22;7458;49.002;8.472;2023-09-07T01:06:38;18.40;99.90
14735;DHT22;7458;49.002;8.472;2023-09-07T01:09:20;18.50;99.90
14735;DHT22;7458;49.002;8.472;2023-09-07T01:21:36;18.30;99.90
14735;DHT22;7458;49.002;8.472;2023-09-07T01:24:10;18.20;99.90
14735;DHT22;7458;49.002;8.472;2023-09-07T01:31:38;18.30;99.90
14735;DHT22;7458;49.002;8.472;2023-09-07T02:00:56;17.90;99.90
14735;DHT22;7458;49.002;8.472;2023-09-07T02:15:40;17.90;99.90
14735;DHT22;7458;49.002;8.472;2023-09-07T02:22:59;18.20;99.90
14735;DHT22;7458;49.002;8.472;2023-09-07T02:35:09;18.00;99.90
14735;DHT22;7458;49.002;8.472;2023-09-07T03:21:32;17.30;99.90
14735;DHT22;7458;49.002;8.472;2023-09-07T03:55:43;17.00;99.90
14735;DHT22;7458;49.002;8.472;2023-09-07T04:00:40;17.40;99.90
14735;DHT22;7458;49.002;8.472;2023-09-07T04:03:07;17.00;99.90
14735;DHT22;7458;49.002;8.472;2023-09-07T04:05:39;16.90;99.90
14735;DHT22;7458;49.002;8.472;2023-09-07T04:08:05;17.00;99.90
14735;DHT22;7458;49.002;8.472;2023-09-07T04:34:55;16.70;99.90
14735;DHT22;7458;49.002;8.472;2023-09-07T04:37:25;16.60;99.90
14735;DHT22;7458;49.002;8.472;2023-09-07T04:39:52;16.80;99.90
14735;DHT22;7458;49.002;8.472;2023-09-07T05:58:04;17.20;99.90
14735;DHT22;7458;49.002;8.472;2023-09-07T06:10:15;18.10;99.90
14735;DHT22;7458;49.002;8.472;2023-09-07T06:17:36;22.00;99.90
14735;DHT22;7458;49.002;8.472;2023-09-07T06:24:54;26.30;93.00
14735;DHT22;7458;49.002;8.472;2023-09-07T06:27:20;27.60;90.80
14735;DHT22;7458;49.002;8.472;2023-09-07T06:34:38;27.60;79.90
14735;DHT22;7458;49.002;8.472;2023-09-07T06:37:05;29.60;77.00
14735;DHT22;7458;49.002;8.472;2023-09-07T06:39:30;31.10;74.50
14735;DHT22;7458;49.002;8.472;2023-09-07T06:41:56;29.90;69.90
14735;DHT22;7458;49.002;8.472;2023-09-07T06:44:22;30.50;65.10
14735;DHT22;7458;49.002;8.472;2023-09-07T06:46:47;30.60;64.00
14735;DHT22;7458;49.002;8.472;2023-09-07T06:49:14;33.60;64.10
14735;DHT22;7458;49.002;8.472;2023-09-07T06:51:40;31.90;61.20
14735;DHT22;7458;49.002;8.472;2023-09-07T06:54:06;27.80;56.40
14735;DHT22;7458;49.002;8.472;2023-09-07T07:01:26;32.90;54.90
14735;DHT22;7458;49.002;8.472;2023-09-07T07:03:52;36.00;57.00
14735;DHT22;7458;49.002;8.472;2023-09-07T07:06:18;33.20;55.60
14735;DHT22;7458;49.002;8.472;2023-09-07T07:08:44;35.10;58.00
14735;DHT22;7458;49.002;8.472;2023-09-07T07:11:10;30.10;57.10
14735;DHT22;7458;49.002;8.472;2023-09-07T07:13:36;30.80;60.20
14735;DHT22;7458;49.002;8.472;2023-09-07T07:23:22;29.10;62.60
14735;DHT22;7458;49.002;8.472;2023-09-07T07:25:50;29.10;63.00
14735;DHT22;7458;49.002;8.472;2023-09-07T07:33:10;27.60;67.60
14735;DHT22;7458;49.002;8.472;2023-09-07T07:38:04;27.50;68.80
14735;DHT22;7458;49.002;8.472;2023-09-07T07:45:24;26.50;81.40
14735;DHT22;7458;49.002;8.472;2023-09-07T07:47:50;26.90;73.30
14735;DHT22;7458;49.002;8.472;2023-09-07T07:50:17;28.20;73.80
14735;DHT22;7458;49.002;8.472;2023-09-07T07:55:10;26.90;82.30
14735;DHT22;7458;49.002;8.472;2023-09-07T07:57:36;27.00;82.00
14735;DHT22;7458;49.002;8.472;2023-09-07T08:00:03;27.10;82.70
14735;DHT22;7458;49.002;8.472;2023-09-07T08:02:30;26.90;81.60
14735;DHT22;7458;49.002;8.472;2023-09-07T08:04:59;27.50;81.30
14735;DHT22;7458;49.002;8.472;2023-09-07T08:07:25;28.20;80.60
14735;DHT22;7458;49.002;8.472;2023-09-07T08:19:36;29.00;67.50
14735;DHT22;7458;49.002;8.472;2023-09-07T08:22:04;29.90;72.70
14735;DHT22;7458;49.002;8.472;2023-09-07T08:34:19;29.10;65.20
14735;DHT22;7458;49.002;8.472;2023-09-07T08:41:42;28.90;65.60
14735;DHT22;7458;49.002;8.472;2023-09-07T08:44:17;29.50;67.20
14735;DHT22;7458;49.002;8.472;2023-09-07T08:46:43;30.60;68.10
14735;DHT22;7458;49.002;8.472;2023-09-07T08:49:10;29.30;64.80
14735;DHT22;7458;49.002;8.472;2023-09-07T08:51:38;29.20;65.30
14735;DHT22;7458;49.002;8.472;2023-09-07T08:54:07;28.70;64.80
14735;DHT22;7458;49.002;8.472;2023-09-07T08:56:35;29.60;65.60
14735;DHT22;7458;49.002;8.472;2023-09-07T09:03:57;29.50;64.50
14735;DHT22;7458;49.002;8.472;2023-09-07T09:06:24;32.10;66.70
14735;DHT22;7458;49.002;8.472;2023-09-07T09:08:56;33.10;67.70
14735;DHT22;7458;49.002;8.472;2023-09-07T09:11:23;30.00;64.00
14735;DHT22;7458;49.002;8.472;2023-09-07T09:13:52;30.10;63.90
14735;DHT22;7458;49.002;8.472;2023-09-07T09:16:19;30.00;63.20
14735;DHT22;7458;49.002;8.472;2023-09-07T09:18:56;32.00;65.70
14735;DHT22;7458;49.002;8.472;2023-09-07T09:21:27;32.50;66.30
14735;DHT22;7458;49.002;8.472;2023-09-07T09:23:54;30.00;64.40
14735;DHT22;7458;49.002;8.472;2023-09-07T09:26:21;30.50;72.40
14735;DHT22;7458;49.002;8.472;2023-09-07T09:28:49;29.90;63.60
14735;DHT22;7458;49.002;8.472;2023-09-07T09:31:18;30.20;71.70
14735;DHT22;7458;49.002;8.472;2023-09-07T09:33:48;30.20;63.10
14735;DHT22;7458;49.002;8.472;2023-09-07T09:36:17;29.90;62.90
14735;DHT22;7458;49.002;8.472;2023-09-07T09:38:48;30.00;65.20
14735;DHT22;7458;49.002;8.472;2023-09-07T09:41:20;30.80;83.80
14735;DHT22;7458;49.002;8.472;2023-09-07T09:43:48;31.40;80.50
14735;DHT22;7458;49.002;8.472;2023-09-07T09:46:15;30.50;83.50
14735;DHT22;7458;49.002;8.472;2023-09-07T09:48:42;31.70;89.80
14735;DHT22;7458;49.002;8.472;2023-09-07T09:51:09;30.70;84.20
14735;DHT22;7458;49.002;8.472;2023-09-07T09:53:36;32.80;76.30
14735;DHT22;7458;49.002;8.472;2023-09-07T09:56:02;31.90;77.10
14735;DHT22;7458;49.002;8.472;2023-09-07T09:58:28;30.60;75.30
14735;DHT22;7458;49.002;8.472;2023-09-07T10:00:56;31.40;70.90
14735;DHT22;7458;49.002;8.472;2023-09-07T10:03:32;30.60;68.90
14735;DHT22;7458;49.002;8.472;2023-09-07T10:06:18;31.80;83.80
14735;DHT22;7458;49.002;8.472;2023-09-07T10:09:03;32.10;64.90
14735;DHT22;7458;49.002;8.472;2023-09-07T10:11:36;30.80;64.50
14735;DHT22;7458;49.002;8.472;2023-09-07T10:14:04;32.00;65.10
14735;DHT22;7458;49.002;8.472;2023-09-07T10:16:45;31.20;64.70
14735;DHT22;7458;49.002;8.472;2023-09-07T10:19:24;31.40;62.00
14735;DHT22;7458;49.002;8.472;2023-09-07T10:21:53;31.40;60.40
14735;DHT22;7458;49.002;8.472;2023-09-07T10:24:31;31.50;60.30
14735;DHT22;7458;49.002;8.472;2023-09-07T10:27:08;31.30;59.30
14735;DHT22;7458;49.002;8.472;2023-09-07T10:29:50;33.20;60.20
14735;DHT22;7458;49.002;8.472;2023-09-07T10:32:19;31.80;72.00
14735;DHT22;7458;49.002;8.472;2023-09-07T10:34:45;31.40;59.30
14735;DHT22;7458;49.002;8.472;2023-09-07T10:37:12;31.70;59.30
14735;DHT22;7458;49.002;8.472;2023-09-07T10:39:40;32.40;59.80
14735;DHT22;7458;49.002;8.472;2023-09-07T10:42:22;32.00;59.10
14735;DHT22;7458;49.002;8.472;2023-09-07T10:44:52;31.50;58.70
14735;DHT22;7458;49.002;8.472;2023-09-07T10:47:18;31.90;58.60
14735;DHT22;7458;49.002;8.472;2023-09-07T10:49:45;32.70;59.10
14735;DHT22;7458;49.002;8.472;2023-09-07T10:52:11;31.30;58.40
14735;DHT22;7458;49.002;8.472;2023-09-07T10:54:36;32.00;59.40
14735;DHT22;7458;49.002;8.472;2023-09-07T10:57:09;32.10;58.70
14735;DHT22;7458;49.002;8.472;2023-09-07T10:59:36;32.50;58.40
14735;DHT22;7458;49.002;8.472;2023-09-07T11:02:05;35.60;61.20
14735;DHT22;7458;49.002;8.472;2023-09-07T11:04:31;34.40;59.50
14735;DHT22;7458;49.002;8.472;2023-09-07T11:09:24;31.90;57.90
14735;DHT22;7458;49.002;8.472;2023-09-07T11:11:50;33.40;60.00
14735;DHT22;7458;49.002;8.472;2023-09-07T11:14:15;34.50;60.90
14735;DHT22;7458;49.002;8.472;2023-09-07T11:16:41;31.90;66.80
14735;DHT22;7458;49.002;8.472;2023-09-07T11:19:08;34.00;59.90
14735;DHT22;7458;49.002;8.472;2023-09-07T11:21:34;32.30;59.30
14735;DHT22;7458;49.002;8.472;2023-09-07T11:24:01;35.10;60.20
14735;DHT22;7458;49.002;8.472;2023-09-07T11:26:43;32.40;57.50
14735;DHT22;7458;49.002;8.472;2023-09-07T11:29:14;33.50;58.80
14735;DHT22;7458;49.002;8.472;2023-09-07T11:31:40;32.50;57.40
14735;DHT22;7458;49.002;8.472;2023-09-07T11:34:10;32.00;57.70
14735;DHT22;7458;49.002;8.472;2023-09-07T11:39:04;32.50;57.10
14735;DHT22;7458;49.002;8.472;2023-09-07T11:41:46;31.60;57.00
14735;DHT22;7458;49.002;8.472;2023-09-07T11:44:11;32.00;57.60
14735;DHT22;7458;49.002;8.472;2023-09-07T11:46:37;32.20;58.00
14735;DHT22;7458;49.002;8.472;2023-09-07T11:49:03;34.80;59.00
14735;DHT22;7458;49.002;8.472;2023-09-07T11:51:34;32.40;58.30
14735;DHT22;7458;49.002;8.472;2023-09-07T11:54:02;35.10;59.60
14735;DHT22;7458;49.002;8.472;2023-09-07T11:56:28;32.20;57.50
14735;DHT22;7458;49.002;8.472;2023-09-07T11:58:54;33.00;58.40
14735;DHT22;7458;49.002;8.472;2023-09-07T12:08:42;31.80;57.30
14735;DHT22;7458;49.002;8.472;2023-09-07T12:13:49;31.90;57.90
14735;DHT22;7458;49.002;8.472;2023-09-07T12:18:41;32.10;66.60
14735;DHT22;7458;49.002;8.472;2023-09-07T12:23:33;32.00;57.20
14735;DHT22;7458;49.002;8.472;2023-09-07T12:26:01;32.20;58.60
14735;DHT22;7458;49.002;8.472;2023-09-07T12:43:14;31.50;58.00
14735;DHT22;7458;49.002;8.472;2023-09-07T12:45:40;31.40;58.30
14735;DHT22;7458;49.002;8.472;2023-09-07T12:48:06;33.50;61.50
14735;DHT22;7458;49.002;8.472;2023-09-07T13:00:16;31.00;57.20
14735;DHT22;7458;49.002;8.472;2023-09-07T13:02:42;31.10;58.30
14735;DHT22;7458;49.002;8.472;2023-09-07T13:05:08;30.80;67.00
14735;DHT22;7458;49.002;8.472;2023-09-07T13:07:34;31.30;67.90
14735;DHT22;7458;49.002;8.472;2023-09-07T13:10:01;30.20;58.20
14735;DHT22;7458;49.002;8.472;2023-09-07T13:12:31;30.80;66.80
14735;DHT22;7458;49.002;8.472;2023-09-07T13:15:01;33.90;61.00
14735;DHT22;7458;49.002;8.472;2023-09-07T13:17:26;31.40;67.90
14735;DHT22;7458;49.002;8.472;2023-09-07T13:27:10;31.20;65.80
14735;DHT22;7458;49.002;8.472;2023-09-07T13:29:36;31.10;57.80
14735;DHT22;7458;49.002;8.472;2023-09-07T13:32:02;33.90;59.30
14735;DHT22;7458;49.002;8.472;2023-09-07T13:34:29;31.00;56.90
14735;DHT22;7458;49.002;8.472;2023-09-07T13:39:22;30.90;66.20
14735;DHT22;7458;49.002;8.472;2023-09-07T13:41:48;30.50;57.70
14735;DHT22;7458;49.002;8.472;2023-09-07T13:46:41;34.70;60.70
14735;DHT22;7458;49.002;8.472;2023-09-07T13:49:09;30.90;58.70
14735;DHT22;7458;49.002;8.472;2023-09-07T13:51:35;32.00;59.00
14735;DHT22;7458;49.002;8.472;2023-09-07T13:54:10;30.60;58.70
14735;DHT22;7458;49.002;8.472;2023-09-07T13:56:35;31.10;69.00
14735;DHT22;7458;49.002;8.472;2023-09-07T13:59:02;31.80;68.70
14735;DHT22;7458;49.002;8.472;2023-09-07T14:03:54;31.00;58.30
14735;DHT22;7458;49.002;8.472;2023-09-07T14:06:20;30.60;58.90
14735;DHT22;7458;49.002;8.472;2023-09-07T14:08:49;30.30;58.50
14735;DHT22;7458;49.002;8.472;2023-09-07T14:13:42;31.10;57.70
14735;DHT22;7458;49.002;8.472;2023-09-07T14:16:08;30.80;66.70
14735;DHT22;7458;49.002;8.472;2023-09-07T14:21:02;31.00;66.40
14735;DHT22;7458;49.002;8.472;2023-09-07T14:23:29;33.80;60.30
14735;DHT22;7458;49.002;8.472;2023-09-07T14:33:13;31.20;56.90
14735;DHT22;7458;49.002;8.472;2023-09-07T14:35:39;33.80;60.50
14735;DHT22;7458;49.002;8.472;2023-09-07T14:38:05;31.20;67.00
14735;DHT22;7458;49.002;8.472;2023-09-07T14:40:31;31.10;57.80
14735;DHT22;7458;49.002;8.472;2023-09-07T14:42:57;31.10;57.90
14735;DHT22;7458;49.002;8.472;2023-09-07T14:45:26;31.00;58.10
14735;DHT22;7458;49.002;8.472;2023-09-07T14:50:18;31.10;56.80
14735;DHT22;7458;49.002;8.472;2023-09-07T14:52:44;32.20;58.60
14735;DHT22;7458;49.002;8.472;2023-09-07T14:55:13;31.50;65.20
14735;DHT22;7458;49.002;8.472;2023-09-07T15:00:09;31.30;56.90
14735;DHT22;7458;49.002;8.472;2023-09-07T15:05:01;31.30;66.70
14735;DHT22;7458;49.002;8.472;2023-09-07T15:07:27;31.50;58.00
14735;DHT22;7458;49.002;8.472;2023-09-07T15:09:53;31.30;57.50
14735;DHT22;7458;49.002;8.472;2023-09-07T15:12:18;31.00;64.80
14735;DHT22;7458;49.002;8.472;2023-09-07T15:17:11;30.50;64.80
14735;DHT22;7458;49.002;8.472;2023-09-07T15:24:31;31.00;64.90
14735;DHT22;7458;49.002;8.472;2023-09-07T15:34:16;31.10;55.30
14735;DHT22;7458;49.002;8.472;2023-09-07T15:41:34;31.20;55.90
14735;DHT22;7458;49.002;8.472;2023-09-07T15:44:00;31.10;64.10
14735;DHT22;7458;49.002;8.472;2023-09-07T15:48:52;31.10;65.90
14735;DHT22;7458;49.002;8.472;2023-09-07T15:53:45;31.10;56.20
14735;DHT22;7458;49.002;8.472;2023-09-07T15:56:10;31.60;65.40
14735;DHT22;7458;49.002;8.472;2023-09-07T15:58:36;30.50;56.40
14735;DHT22;7458;49.002;8.472;2023-09-07T16:01:02;32.60;57.70
14735;DHT22;7458;49.002;8.472;2023-09-07T16:03:28;31.10;65.60
14735;DHT22;7458;49.002;8.472;2023-09-07T16:08:20;31.20;55.90
14735;DHT22;7458;49.002;8.472;2023-09-07T16:10:46;31.20;57.00
14735;DHT22;7458;49.002;8.472;2023-09-07T16:13:12;34.10;58.80
14735;DHT22;7458;49.002;8.472;2023-09-07T16:18:04;31.10;55.70
14735;DHT22;7458;49.002;8.472;2023-09-07T16:20:29;31.20;56.90
14735;DHT22;7458;49.002;8.472;2023-09-07T16:30:17;30.90;63.80
14735;DHT22;7458;49.002;8.472;2023-09-07T16:32:42;30.90;56.90
14735;DHT22;7458;49.002;8.472;2023-09-07T16:35:09;30.90;56.70
14735;DHT22;7458;49.002;8.472;2023-09-07T16:40:01;30.70;65.70
14735;DHT22;7458;49.002;8.472;2023-09-07T16:42:28;30.80;64.90
14735;DHT22;7458;49.002;8.472;2023-09-07T16:49:46;30.40;64.80
14735;DHT22;7458;49.002;8.472;2023-09-07T16:54:39;30.80;56.50
14735;DHT22;7458;49.002;8.472;2023-09-07T16:57:06;31.10;66.00
14735;DHT22;7458;49.002;8.472;2023-09-07T16:59:32;30.60;66.70
14735;DHT22;7458;49.002;8.472;2023-09-07T17:01:57;30.70;58.00
14735;DHT22;7458;49.002;8.472;2023-09-07T17:04:24;30.70;57.20
14735;DHT22;7458;49.002;8.472;2023-09-07T17:14:09;30.50;57.30
14735;DHT22;7458;49.002;8.472;2023-09-07T17:16:34;30.50;67.80
14735;DHT22;7458;49.002;8.472;2023-09-07T17:21:31;30.30;57.20
14735;DHT22;7458;49.002;8.472;2023-09-07T17:23:57;30.20;58.40
14735;DHT22;7458;49.002;8.472;2023-09-07T17:26:23;30.20;58.90
14735;DHT22;7458;49.002;8.472;2023-09-07T17:28:49;30.40;59.00
14735;DHT22;7458;49.002;8.472;2023-09-07T17:31:17;29.30;58.90
14735;DHT22;7458;49.002;8.472;2023-09-07T17:33:46;30.90;59.50
14735;DHT22;7458;49.002;8.472;2023-09-07T17:36:21;29.80;69.40
14735;DHT22;7458;49.002;8.472;2023-09-07T17:38:48;29.80;70.00
14735;DHT22;7458;49.002;8.472;2023-09-07T17:41:27;33.00;61.80
14735;DHT22;7458;49.002;8.472;2023-09-07T17:43:54;29.70;59.30
14735;DHT22;7458;49.002;8.472;2023-09-07T17:46:21;29.60;60.10
14735;DHT22;7458;49.002;8.472;2023-09-07T17:53:40;29.30;73.60
14735;DHT22;7458;49.002;8.472;2023-09-07T17:56:07;28.50;63.20
14735;DHT22;7458;49.002;8.472;2023-09-07T17:58:39;28.90;63.20
14735;DHT22;7458;49.002;8.472;2023-09-07T18:01:11;28.70;73.60
14735;DHT22;7458;49.002;8.472;2023-09-07T18:08:32;28.30;64.90
14735;DHT22;7458;49.002;8.472;2023-09-07T18:10:58;28.30;65.30
14735;DHT22;7458;49.002;8.472;2023-09-07T18:23:15;27.40;76.60
14735;DHT22;7458;49.002;8.472;2023-09-07T18:35:32;27.00;78.70
14735;DHT22;7458;49.002;8.472;2023-09-07T18:37:58;27.20;68.70
14735;DHT22;7458;49.002;8.472;2023-09-07T18:42:50;26.90;81.20
14735;DHT22;7458;49.002;8.472;2023-09-07T18:45:23;26.80;82.50
14735;DHT22;7458;49.002;8.472;2023-09-07T18:55:10;26.90;85.20
14735;DHT22;7458;49.002;8.472;2023-09-07T18:57:36;26.50;83.90
14735;DHT22;7458;49.002;8.472;2023-09-07T19:00:05;26.60;84.90
14735;DHT22;7458;49.002;8.472;2023-09-07T19:02:31;26.50;85.20
14735;DHT22;7458;49.002;8.472;2023-09-07T19:07:23;26.20;87.00
14735;DHT22;7458;49.002;8.472;2023-09-07T19:17:10;26.00;88.20
14735;DHT22;7458;49.002;8.472;2023-09-07T19:22:02;25.90;87.50
14735;DHT22;7458;49.002;8.472;2023-09-07T19:24:28;25.70;88.70
14735;DHT22;7458;49.002;8.472;2023-09-07T19:26:53;27.30;79.30
14735;DHT22;7458;49.002;8.472;2023-09-07T19:29:21;25.70;77.00
14735;DHT22;7458;49.002;8.472;2023-09-07T19:34:13;25.30;88.40
14735;DHT22;7458;49.002;8.472;2023-09-07T19:39:05;25.40;89.60
14735;DHT22;7458;49.002;8.472;2023-09-07T19:51:20;25.10;79.90
14735;DHT22;7458;49.002;8.472;2023-09-07T19:53:48;24.90;91.00
14735;DHT22;7458;49.002;8.472;2023-09-07T19:56:20;24.90;79.80
14735;DHT22;7458;49.002;8.472;2023-09-07T20:01:18;24.50;90.90
14735;DHT22;7458;49.002;8.472;2023-09-07T20:03:46;24.60;80.00
14735;DHT22;7458;49.002;8.472;2023-09-07T20:06:14;24.70;75.80
14735;DHT22;7458;49.002;8.472;2023-09-07T20:11:12;25.10;70.10
14735;DHT22;7458;49.002;8.472;2023-09-07T20:13:43;25.10;81.70
14735;DHT22;7458;49.002;8.472;2023-09-07T20:18:38;25.30;70.90
14735;DHT22;7458;49.002;8.472;2023-09-07T20:21:06;25.10;82.50
14735;DHT22;7458;49.002;8.472;2023-09-07T20:30:54;24.70;87.60
14735;DHT22;7458;49.002;8.472;2023-09-07T20:33:19;24.60;82.60
14735;DHT22;7458;49.002;8.472;2023-09-07T20:38:11;24.70;84.00
14735;DHT22;7458;49.002;8.472;2023-09-07T20:40:37;25.00;74.60
14735;DHT22;7458;49.002;8.472;2023-09-07T20:43:03;25.30;83.30
14735;DHT22;7458;49.002;8.472;2023-09-07T20:45:31;25.20;83.40
14735;DHT22;7458;49.002;8.472;2023-09-07T20:47:57;25.10;83.50
14735;DHT22;7458;49.002;8.472;2023-09-07T20:52:49;25.10;70.90
14735;DHT22;7458;49.002;8.472;2023-09-07T21:00:08;25.10;83.60
14735;DHT22;7458;49.002;8.472;2023-09-07T21:02:39;24.80;84.10
14735;DHT22;7458;49.002;8.472;2023-09-07T21:05:06;24.80;73.60
14735;DHT22;7458;49.002;8.472;2023-09-07T21:12:25;24.40;86.20
14735;DHT22;7458;49.002;8.472;2023-09-07T21:14:52;24.60;85.70
14735;DHT22;7458;49.002;8.472;2023-09-07T21:17:17;24.60;75.20
14735;DHT22;7458;49.002;8.472;2023-09-07T21:22:10;25.10;86.30
14735;DHT22;7458;49.002;8.472;2023-09-07T21:27:02;24.60;74.00
14735;DHT22;7458;49.002;8.472;2023-09-07T21:29:28;24.60;85.30
14735;DHT22;7458;49.002;8.472;2023-09-07T21:31:54;24.60;75.20
14735;DHT22;7458;49.002;8.472;2023-09-07T21:34:20;24.60;75.40
14735;DHT22;7458;49.002;8.472;2023-09-07T21:36:45;24.50;85.60
14735;DHT22;7458;49.002;8.472;2023-09-07T21:46:39;24.00;91.60
14735;DHT22;7458;49.002;8.472;2023-09-07T21:49:04;23.70;81.20
14735;DHT22;7458;49.002;8.472;2023-09-07T21:53:57;23.40;81.70
14735;DHT22;7458;49.002;8.472;2023-09-07T21:56:24;23.30;93.30
14735;DHT22;7458;49.002;8.472;2023-09-07T22:01:16;23.00;83.80
14735;DHT22;7458;49.002;8.472;2023-09-07T22:03:42;23.00;86.20
14735;DHT22;7458;49.002;8.472;2023-09-07T22:06:08;22.90;86.70
14735;DHT22;7458;49.002;8.472;2023-09-07T22:08:34;22.80;94.00
14735;DHT22;7458;49.002;8.472;2023-09-07T22:10:59;22.70;93.70
14735;DHT22;7458;49.002;8.472;2023-09-07T22:13:25;22.60;94.10
14735;DHT22;7458;49.002;8.472;2023-09-07T22:18:17;22.70;93.10
14735;DHT22;7458;49.002;8.472;2023-09-07T22:20:43;22.40;90.00
14735;DHT22;7458;49.002;8.472;2023-09-07T22:23:09;22.60;90.00
14735;DHT22;7458;49.002;8.472;2023-09-07T22:25:34;22.50;90.10
14735;DHT22;7458;49.002;8.472;2023-09-07T22:30:26;22.50;88.30
14735;DHT22;7458;49.002;8.472;2023-09-07T22:35:18;22.90;96.50
14735;DHT22;7458;49.002;8.472;2023-09-07T22:37:44;22.30;90.60
14735;DHT22;7458;49.002;8.472;2023-09-07T22:42:44;22.30;89.70
14735;DHT22;7458;49.002;8.472;2023-09-07T22:45:11;24.90;90.80
14735;DHT22;7458;49.002;8.472;2023-09-07T22:47:38;22.90;96.90
14735;DHT22;7458;49.002;8.472;2023-09-07T22:50:08;24.60;91.00
14735;DHT22;7458;49.002;8.472;2023-09-07T22:52:35;22.20;96.70
14735;DHT22;7458;49.002;8.472;2023-09-07T22:55:06;22.40;96.20
14735;DHT22;7458;49.002;8.472;2023-09-07T22:57:33;22.20;96.50
14735;DHT22;7458;49.002;8.472;2023-09-07T23:00:00;21.90;91.40
14735;DHT22;7458;49.002;8.472;2023-09-07T23:02:26;21.90;96.40
14735;DHT22;7458;49.002;8.472;2023-09-07T23:04:53;22.10;96.40
14735;DHT22;7458;49.002;8.472;2023-09-07T23:07:20;21.90;96.70
14735;DHT22;7458;49.002;8.472;2023-09-07T23:09:46;22.30;91.60
14735;DHT22;7458;49.002;8.472;2023-09-07T23:12:14;21.70;97.00
14735;DHT22;7458;49.002;8.472;2023-09-07T23:14:43;21.80;92.50
14735;DHT22;7458;49.002;8.472;2023-09-07T23:19:35;21.70;91.50
14735;DHT22;7458;49.002;8.472;2023-09-07T23:24:27;21.70;91.60
14735;DHT22;7458;49.002;8.472;2023-09-07T23:26:52;21.60;92.40
14735;DHT22;7458;49.002;8.472;2023-09-07T23:29:18;21.50;98.90
14735;DHT22;7458;49.002;8.472;2023-09-07T23:31:44;21.60;93.00
14735;DHT22;7458;49.002;8.472;2023-09-07T23:34:10;21.50;93.20
14735;DHT22;7458;49.002;8.472;2023-09-07T23:36:36;21.50;92.90
14735;DHT22;7458;49.002;8.472;2023-09-07T23:39:03;21.50;93.00
14735;DHT22;7458;49.002;8.472;2023-09-07T23:41:30;21.50;92.90
14735;DHT22;7458;49.002;8.472;2023-09-07T23:43:56;21.40;93.30
14735;DHT22;7458;49.002;8.472;2023-09-07T23:46:22;21.40;93.60
14735;DHT22;7458;49.002;8.472;2023-09-07T23:48:47;21.30;99.80
14735;DHT22;7458;49.002;8.472;2023-09-07T23:53:39;21.30;93.10
14735;DHT22;7458;49.002;8.472;2023-09-07T23:56:05;22.30;94.50
14735;DHT22;7458;49.002;8.472;2023-09-07T23:58:31;23.30;95.00
